createdAt,value
2022-12-22T00:00:48.747Z,5.70
2022-12-22T00:03:15.734Z,5.60
2022-12-22T00:05:42.670Z,5.60
2022-12-22T00:08:10.363Z,5.50
2022-12-22T00:10:37.194Z,5.60
2022-12-22T00:13:04.648Z,5.50
2022-12-22T00:15:34.337Z,5.50
2022-12-22T00:18:02.442Z,5.50
2022-12-22T00:23:16.112Z,5.50
2022-12-22T00:28:14.861Z,5.50
2022-12-22T00:30:41.864Z,5.50
2022-12-22T00:33:11.482Z,5.50
2022-12-22T00:35:38.272Z,5.50
2022-12-22T00:38:15.631Z,5.50
2022-12-22T00:40:42.446Z,5.60
2022-12-22T00:43:09.388Z,5.60
2022-12-22T00:45:37.633Z,5.60
2022-12-22T00:48:06.397Z,5.60
2022-12-22T00:50:35.691Z,5.60
2022-12-22T00:53:04.272Z,5.60
2022-12-22T00:55:32.864Z,5.70
2022-12-22T00:58:00.440Z,5.70
2022-12-22T01:03:14.749Z,5.60
2022-12-22T01:05:41.642Z,5.70
2022-12-22T01:08:10.843Z,5.70
2022-12-22T01:10:37.928Z,5.70
2022-12-22T01:15:58.146Z,5.70
2022-12-22T01:21:11.613Z,5.70
2022-12-22T01:26:26.824Z,5.70
2022-12-22T01:28:53.568Z,5.80
2022-12-22T01:31:30.017Z,5.80
2022-12-22T01:33:56.753Z,5.80
2022-12-22T01:39:10.216Z,5.80
2022-12-22T01:44:23.876Z,5.80
2022-12-22T01:49:43.904Z,5.90
2022-12-22T01:52:13.412Z,5.90
2022-12-22T01:54:40.883Z,5.90
2022-12-22T01:57:07.634Z,5.90
2022-12-22T01:59:34.603Z,5.90
2022-12-22T02:02:05.679Z,5.90
2022-12-22T02:04:41.888Z,6.00
2022-12-22T02:07:46.830Z,5.90
2022-12-22T02:13:30.724Z,6.00
2022-12-22T02:16:18.437Z,5.90
2022-12-22T02:18:54.499Z,6.00
2022-12-22T02:21:24.271Z,5.90
2022-12-22T02:24:15.076Z,5.90
2022-12-22T02:26:46.306Z,5.90
2022-12-22T02:32:03.125Z,5.90
2022-12-22T02:34:29.872Z,5.90
2022-12-22T02:37:13.697Z,6.00
2022-12-22T02:42:36.564Z,5.90
2022-12-22T02:45:26.252Z,5.90
2022-12-22T02:48:07.224Z,6.00
2022-12-22T02:50:45.699Z,6.00
2022-12-22T02:53:15.764Z,6.10
2022-12-22T02:55:42.847Z,6.00
2022-12-22T02:58:12.088Z,6.00
2022-12-22T03:00:39.207Z,6.00
2022-12-22T03:05:52.772Z,6.10
2022-12-22T03:11:06.311Z,6.10
2022-12-22T03:16:20.208Z,6.20
2022-12-22T03:18:46.992Z,6.10
2022-12-22T03:21:13.750Z,6.20
2022-12-22T03:23:40.651Z,6.20
2022-12-22T03:26:07.384Z,6.20
2022-12-22T03:28:34.124Z,6.20
2022-12-22T03:31:04.667Z,6.20
2022-12-22T03:36:19.006Z,6.20
2022-12-22T03:38:45.819Z,6.30
2022-12-22T03:41:12.632Z,6.30
2022-12-22T03:43:39.390Z,6.30
2022-12-22T03:46:06.871Z,6.30
2022-12-22T03:48:33.638Z,6.30
2022-12-22T03:51:00.422Z,6.30
2022-12-22T03:53:27.295Z,6.30
2022-12-22T03:55:54.061Z,6.30
2022-12-22T03:58:20.812Z,6.30
2022-12-22T04:00:47.634Z,6.30
2022-12-22T04:03:14.638Z,6.30
2022-12-22T04:05:41.549Z,6.30
2022-12-22T04:08:08.298Z,6.40
2022-12-22T04:10:35.098Z,6.40
2022-12-22T04:13:01.836Z,6.40
2022-12-22T04:15:31.392Z,6.40
2022-12-22T04:17:59.085Z,6.40
2022-12-22T04:20:27.532Z,6.40
2022-12-22T04:22:55.642Z,6.40
2022-12-22T04:25:23.311Z,6.50
2022-12-22T04:27:50.199Z,6.40
2022-12-22T04:30:17.535Z,6.50
2022-12-22T04:32:44.382Z,6.50
2022-12-22T04:35:11.756Z,6.50
2022-12-22T04:37:38.515Z,6.50
2022-12-22T04:40:05.974Z,6.50
2022-12-22T04:42:32.731Z,6.50
2022-12-22T04:44:59.512Z,6.60
2022-12-22T04:47:26.274Z,6.60
2022-12-22T04:49:53.023Z,6.60
2022-12-22T04:52:19.769Z,6.60
2022-12-22T04:54:46.508Z,6.60
2022-12-22T04:57:13.304Z,6.60
2022-12-22T04:59:40.089Z,6.60
2022-12-22T05:02:06.937Z,6.60
2022-12-22T05:04:33.926Z,6.60
2022-12-22T05:07:00.689Z,6.60
2022-12-22T05:12:14.141Z,6.70
2022-12-22T05:17:27.603Z,6.60
2022-12-22T05:22:41.102Z,6.60
2022-12-22T05:25:08.216Z,6.70
2022-12-22T05:27:35.296Z,6.70
2022-12-22T05:30:02.385Z,6.70
2022-12-22T05:32:29.156Z,6.70
2022-12-22T05:34:55.954Z,6.70
2022-12-22T05:37:22.693Z,6.70
2022-12-22T05:39:49.450Z,6.70
2022-12-22T05:45:12.778Z,6.70
2022-12-22T05:47:40.332Z,6.70
2022-12-22T05:50:08.277Z,6.70
2022-12-22T05:52:35.559Z,6.70
2022-12-22T05:57:49.785Z,6.60
2022-12-22T06:03:04.336Z,6.70
2022-12-22T06:05:31.235Z,6.70
2022-12-22T06:07:58.183Z,6.70
2022-12-22T06:10:25.501Z,6.70
2022-12-22T06:12:52.257Z,6.70
2022-12-22T06:15:19.147Z,6.70
2022-12-22T06:17:45.853Z,6.70
2022-12-22T06:20:14.200Z,6.60
2022-12-22T06:22:41.145Z,6.70
2022-12-22T06:25:10.875Z,6.60
2022-12-22T06:30:33.655Z,6.60
2022-12-22T06:35:52.366Z,6.60
2022-12-22T06:38:24.711Z,6.60
2022-12-22T06:40:51.465Z,6.60
2022-12-22T06:43:19.090Z,6.60
2022-12-22T06:45:46.136Z,6.60
2022-12-22T06:48:13.288Z,6.60
2022-12-22T06:50:40.381Z,6.50
2022-12-22T06:53:07.638Z,6.60
2022-12-22T06:55:35.328Z,6.60
2022-12-22T06:58:02.124Z,6.60
2022-12-22T07:00:29.096Z,6.50
2022-12-22T07:02:56.168Z,6.60
2022-12-22T07:05:23.516Z,6.50
2022-12-22T07:10:38.011Z,6.60
2022-12-22T07:15:59.487Z,6.60
2022-12-22T07:18:28.902Z,6.50
2022-12-22T07:20:55.667Z,6.60
2022-12-22T07:23:22.485Z,6.60
2022-12-22T07:28:37.938Z,6.50
2022-12-22T07:33:52.652Z,6.60
2022-12-22T07:39:07.574Z,6.60
2022-12-22T07:44:01.864Z,6.60
2022-12-22T07:46:30.949Z,6.60
2022-12-22T07:51:45.333Z,6.70
2022-12-22T07:57:01.375Z,6.70
2022-12-22T08:02:15.017Z,6.70
2022-12-22T08:04:42.102Z,6.70
2022-12-22T08:07:08.949Z,6.60
2022-12-22T08:09:35.740Z,6.70
2022-12-22T08:12:02.490Z,6.80
2022-12-22T08:14:29.304Z,6.70
2022-12-22T08:16:56.145Z,6.70
2022-12-22T08:19:22.922Z,6.70
2022-12-22T08:21:52.976Z,6.70
2022-12-22T08:24:20.511Z,6.70
2022-12-22T08:26:50.547Z,6.70
2022-12-22T08:29:35.057Z,6.60
2022-12-22T08:32:02.468Z,6.70
2022-12-22T08:34:29.463Z,6.70
2022-12-22T08:37:00.120Z,6.70
2022-12-22T08:39:31.101Z,6.80
2022-12-22T08:44:45.654Z,6.80
2022-12-22T08:47:16.986Z,6.80
2022-12-22T08:49:44.188Z,6.80
2022-12-22T08:52:17.851Z,6.80
2022-12-22T08:54:48.851Z,6.80
2022-12-22T08:57:15.632Z,6.80
2022-12-22T08:59:42.443Z,6.80
2022-12-22T09:02:09.316Z,6.80
2022-12-22T09:04:37.690Z,6.70
2022-12-22T09:07:04.475Z,6.80
2022-12-22T09:09:32.199Z,6.80
2022-12-22T09:11:59.248Z,6.80
2022-12-22T09:14:26.263Z,6.80
2022-12-22T09:16:53.124Z,6.80
2022-12-22T09:19:20.500Z,6.80
2022-12-22T09:21:47.299Z,6.90
2022-12-22T09:24:14.430Z,6.90
2022-12-22T09:26:41.202Z,7.00
2022-12-22T09:29:08.023Z,6.90
2022-12-22T09:31:34.846Z,6.90
2022-12-22T09:34:01.681Z,6.90
2022-12-22T09:39:20.094Z,7.00
2022-12-22T09:41:55.877Z,7.10
2022-12-22T09:44:37.910Z,7.00
2022-12-22T09:47:24.409Z,7.00
2022-12-22T09:49:53.859Z,7.00
2022-12-22T09:52:35.440Z,7.10
2022-12-22T09:58:31.458Z,7.10
2022-12-22T10:01:17.233Z,7.20
2022-12-22T10:03:53.845Z,7.20
2022-12-22T10:07:09.071Z,7.20
2022-12-22T10:09:49.662Z,7.20
2022-12-22T10:12:20.161Z,7.30
2022-12-22T10:14:49.543Z,7.30
2022-12-22T10:17:33.796Z,7.30
2022-12-22T10:23:27.900Z,7.30
2022-12-22T10:26:27.434Z,7.30
2022-12-22T10:29:04.692Z,7.40
2022-12-22T10:31:34.110Z,7.30
2022-12-22T10:37:04.983Z,7.30
2022-12-22T10:42:14.742Z,7.40
2022-12-22T10:44:46.342Z,7.40
2022-12-22T10:47:19.197Z,7.40
2022-12-22T10:49:49.995Z,7.40
2022-12-22T10:55:18.669Z,7.40
2022-12-22T10:57:45.670Z,7.40
2022-12-22T11:00:37.133Z,7.50
2022-12-22T11:03:06.607Z,7.50
2022-12-22T11:05:33.968Z,7.50
2022-12-22T11:08:12.513Z,7.50
2022-12-22T11:10:53.428Z,7.50
2022-12-22T11:13:26.339Z,7.50
2022-12-22T11:19:01.169Z,7.50
2022-12-22T11:21:43.009Z,7.50
2022-12-22T11:30:47.970Z,7.40
2022-12-22T11:33:29.992Z,7.50
2022-12-22T11:36:06.107Z,7.50
2022-12-22T11:42:05.644Z,7.40
2022-12-22T11:45:10.379Z,7.50
2022-12-22T11:48:11.090Z,7.50
2022-12-22T11:50:59.573Z,7.50
2022-12-22T11:53:50.303Z,7.50
2022-12-22T11:56:26.701Z,7.50
2022-12-22T11:59:08.761Z,7.50
2022-12-22T12:04:55.950Z,7.50
2022-12-22T12:07:36.957Z,7.50
2022-12-22T12:10:31.002Z,7.50
2022-12-22T12:13:39.064Z,7.50
2022-12-22T12:16:40.061Z,7.50
2022-12-22T12:22:29.772Z,7.60
2022-12-22T12:25:01.362Z,7.60
2022-12-22T12:30:39.615Z,7.60
2022-12-22T12:33:38.783Z,7.50
2022-12-22T12:36:14.948Z,7.60
2022-12-22T12:39:07.998Z,7.60
2022-12-22T12:41:50.496Z,7.60
2022-12-22T12:44:21.067Z,7.60
2022-12-22T12:46:50.604Z,7.60
2022-12-22T12:49:35.987Z,7.60
2022-12-22T12:52:04.472Z,7.60
2022-12-22T12:54:36.949Z,7.70
2022-12-22T12:57:28.487Z,7.70
2022-12-22T12:59:58.230Z,7.70
2022-12-22T13:05:33.421Z,7.70
2022-12-22T13:08:06.174Z,7.70
2022-12-22T13:10:48.831Z,7.70
2022-12-22T13:13:24.607Z,7.70
2022-12-22T13:16:03.345Z,7.70
2022-12-22T13:18:49.144Z,7.70
2022-12-22T13:27:30.447Z,7.50
2022-12-22T13:32:47.200Z,7.50
2022-12-22T13:35:32.489Z,7.40
2022-12-22T13:38:00.293Z,7.40
2022-12-22T13:40:42.050Z,7.50
2022-12-22T13:43:17.707Z,7.40
2022-12-22T13:45:51.055Z,7.40
2022-12-22T13:48:23.457Z,7.30
2022-12-22T13:50:59.458Z,7.30
2022-12-22T13:56:50.536Z,7.40
2022-12-22T13:59:55.889Z,7.30
2022-12-22T14:02:22.900Z,7.30
2022-12-22T14:08:06.591Z,7.30
2022-12-22T14:10:39.385Z,7.30
2022-12-22T14:13:14.358Z,7.30
2022-12-22T14:15:41.407Z,7.20
2022-12-22T14:18:16.988Z,7.30
2022-12-22T14:20:47.031Z,7.30
2022-12-22T14:26:08.048Z,7.20
2022-12-22T14:28:40.980Z,7.20
2022-12-22T14:31:08.068Z,7.10
2022-12-22T14:33:35.440Z,7.00
2022-12-22T14:36:20.364Z,7.00
2022-12-22T14:39:09.996Z,6.90
2022-12-22T14:41:49.452Z,6.90
2022-12-22T14:44:26.555Z,6.80
2022-12-22T14:47:02.343Z,6.80
2022-12-22T14:49:29.278Z,6.70
2022-12-22T14:52:01.288Z,6.70
2022-12-22T14:54:28.715Z,6.60
2022-12-22T14:57:03.995Z,6.60
2022-12-22T15:02:38.349Z,6.50
2022-12-22T15:05:30.457Z,6.40
2022-12-22T15:08:07.853Z,6.40
2022-12-22T15:10:41.682Z,6.30
2022-12-22T15:13:18.959Z,6.20
2022-12-22T15:18:32.908Z,6.20
2022-12-22T15:20:59.688Z,6.10
2022-12-22T15:23:26.466Z,6.10
2022-12-22T15:25:53.270Z,6.10
2022-12-22T15:28:20.174Z,6.00
2022-12-22T15:30:47.060Z,5.90
2022-12-22T15:33:16.192Z,5.90
2022-12-22T15:35:44.266Z,5.90
2022-12-22T15:38:17.353Z,5.90
2022-12-22T15:40:44.582Z,5.80
2022-12-22T15:43:36.824Z,5.70
2022-12-22T15:45:59.209Z,5.70
2022-12-22T15:48:46.478Z,5.70
2022-12-22T15:51:22.985Z,5.60
2022-12-22T15:53:50.151Z,5.50
2022-12-22T15:56:22.753Z,5.60
2022-12-22T16:01:16.825Z,5.60
2022-12-22T16:03:43.855Z,5.60
2022-12-22T16:06:14.637Z,5.60
2022-12-22T16:08:43.862Z,5.60
2022-12-22T16:11:10.746Z,5.50
2022-12-22T16:13:38.334Z,5.50
2022-12-22T16:16:05.798Z,5.50
2022-12-22T16:18:33.112Z,5.50
2022-12-22T16:21:05.602Z,5.40
2022-12-22T16:23:32.401Z,5.40
2022-12-22T16:26:01.963Z,5.30
2022-12-22T16:28:29.621Z,5.20
2022-12-22T16:30:56.713Z,5.10
2022-12-22T16:33:23.597Z,5.10
2022-12-22T16:35:50.390Z,5.10
2022-12-22T16:38:19.215Z,5.20
2022-12-22T16:40:52.492Z,5.20
2022-12-22T16:48:59.656Z,5.10
2022-12-22T16:51:34.160Z,5.10
2022-12-22T16:54:01.729Z,5.00
2022-12-22T16:56:30.881Z,5.10
2022-12-22T16:58:58.040Z,5.10
2022-12-22T17:01:35.092Z,5.10
2022-12-22T17:04:07.084Z,5.00
2022-12-22T17:06:34.943Z,5.00
2022-12-22T17:09:04.744Z,5.10
2022-12-22T17:11:31.745Z,5.20
2022-12-22T17:17:31.087Z,5.20
2022-12-22T17:22:48.851Z,5.10
2022-12-22T17:25:20.053Z,5.00
2022-12-22T17:27:47.319Z,5.00
2022-12-22T17:30:22.894Z,5.00
2022-12-22T17:32:50.252Z,5.00
2022-12-22T17:35:20.146Z,5.00
2022-12-22T17:37:48.458Z,4.90
2022-12-22T17:40:25.294Z,4.90
2022-12-22T17:42:52.814Z,4.90
2022-12-22T17:45:20.810Z,4.90
2022-12-22T17:47:47.616Z,4.90
2022-12-22T17:50:19.882Z,4.90
2022-12-22T17:52:47.252Z,4.80
2022-12-22T17:56:06.086Z,4.90
2022-12-22T17:58:15.198Z,4.90
2022-12-22T18:00:42.417Z,4.90
2022-12-22T18:03:13.906Z,4.90
2022-12-22T18:08:17.847Z,5.00
2022-12-22T18:10:46.009Z,5.00
2022-12-22T18:16:14.034Z,5.00
2022-12-22T18:18:41.880Z,5.00
2022-12-22T18:24:04.102Z,5.10
2022-12-22T18:26:31.391Z,5.20
2022-12-22T18:28:59.021Z,5.20
2022-12-22T18:31:26.441Z,5.20
2022-12-22T18:33:53.621Z,5.10
2022-12-22T18:36:29.453Z,5.10
2022-12-22T18:38:56.734Z,5.10
2022-12-22T18:41:25.434Z,5.10
2022-12-22T18:43:52.529Z,5.10
2022-12-22T18:46:20.206Z,5.20
2022-12-22T18:48:48.608Z,5.20
2022-12-22T18:51:22.936Z,5.20
2022-12-22T18:53:51.500Z,5.20
2022-12-22T18:56:18.841Z,5.10
2022-12-22T18:58:45.770Z,5.20
2022-12-22T19:01:32.943Z,5.20
2022-12-22T19:06:46.680Z,5.20
2022-12-22T19:11:43.668Z,5.20
2022-12-22T19:14:18.204Z,5.20
2022-12-22T19:16:46.126Z,5.10
2022-12-22T19:19:22.101Z,5.10
2022-12-22T19:21:48.831Z,5.10
2022-12-22T19:24:16.047Z,5.10
2022-12-22T19:26:43.416Z,5.10
2022-12-22T19:29:13.926Z,5.10
2022-12-22T19:31:43.206Z,5.10
2022-12-22T19:34:18.533Z,5.10
2022-12-22T19:36:46.070Z,5.10
2022-12-22T19:42:00.373Z,5.10
2022-12-22T19:47:22.880Z,5.00
2022-12-22T19:49:50.120Z,5.00
2022-12-22T19:52:17.284Z,5.10
2022-12-22T19:54:44.471Z,5.00
2022-12-22T20:00:16.349Z,5.00
2022-12-22T20:02:44.096Z,5.10
2022-12-22T20:08:10.045Z,5.00
2022-12-22T20:13:26.289Z,5.10
2022-12-22T20:18:40.021Z,5.00
2022-12-22T20:24:00.953Z,5.10
2022-12-22T20:29:14.537Z,5.10
2022-12-22T20:31:41.360Z,5.10
2022-12-22T20:34:08.176Z,5.10
2022-12-22T20:36:34.999Z,5.20
2022-12-22T20:39:01.826Z,5.20
2022-12-22T20:41:28.668Z,5.20
2022-12-22T20:43:55.467Z,5.20
2022-12-22T20:46:27.892Z,5.20
2022-12-22T20:48:58.136Z,5.20
2022-12-22T20:51:27.964Z,5.20
2022-12-22T20:56:44.240Z,5.20
2022-12-22T20:59:20.243Z,5.20
2022-12-22T21:01:48.825Z,5.20
2022-12-22T21:04:15.989Z,5.20
2022-12-22T21:06:51.938Z,5.20
2022-12-22T21:09:19.743Z,5.20
2022-12-22T21:11:46.737Z,5.10
2022-12-22T21:14:14.076Z,5.10
2022-12-22T21:16:42.233Z,5.10
2022-12-22T21:19:16.244Z,5.10
2022-12-22T21:21:43.051Z,5.10
2022-12-22T21:24:09.796Z,5.10
2022-12-22T21:29:27.648Z,5.10
2022-12-22T21:34:21.509Z,5.10
2022-12-22T21:36:55.064Z,5.10
2022-12-22T21:39:38.160Z,5.10
2022-12-22T21:42:05.909Z,5.10
2022-12-22T21:44:35.018Z,5.10
2022-12-22T21:47:02.603Z,5.20
2022-12-22T21:49:32.488Z,5.20
2022-12-22T21:51:59.486Z,5.20
2022-12-22T21:54:26.800Z,5.20
2022-12-22T21:56:54.670Z,5.20
2022-12-22T21:59:22.328Z,5.20
2022-12-22T22:01:49.296Z,5.10
2022-12-22T22:04:16.121Z,5.20
2022-12-22T22:06:42.939Z,5.20
2022-12-22T22:09:09.835Z,5.20
2022-12-22T22:11:36.600Z,5.20
2022-12-22T22:14:03.412Z,5.20
2022-12-22T22:16:30.213Z,5.20
2022-12-22T22:21:23.721Z,5.20
2022-12-22T22:23:50.511Z,5.10
2022-12-22T22:28:43.936Z,5.10
2022-12-22T22:31:11.643Z,5.10
2022-12-22T22:33:38.553Z,5.10
2022-12-22T22:36:07.302Z,5.10
2022-12-22T22:38:34.423Z,5.00
2022-12-22T22:43:27.949Z,5.00
2022-12-22T22:45:54.746Z,4.90
2022-12-22T22:48:22.837Z,5.00
2022-12-22T22:50:50.284Z,4.90
2022-12-22T22:53:17.160Z,5.00
2022-12-22T22:55:43.946Z,4.90
2022-12-22T22:58:10.833Z,5.00
2022-12-22T23:00:38.366Z,4.90
2022-12-22T23:03:05.517Z,4.90
2022-12-22T23:08:19.119Z,4.90
2022-12-22T23:10:48.933Z,4.80
2022-12-22T23:13:15.714Z,4.80
2022-12-22T23:15:42.499Z,4.90
2022-12-22T23:21:00.115Z,4.90
2022-12-22T23:25:54.555Z,4.80
2022-12-22T23:28:21.531Z,4.80
2022-12-22T23:33:37.035Z,4.80
2022-12-22T23:36:04.799Z,4.80
2022-12-22T23:41:19.461Z,4.80
2022-12-22T23:43:46.443Z,4.90
2022-12-22T23:48:43.668Z,4.80
2022-12-22T23:51:12.023Z,4.90
2022-12-22T23:56:27.022Z,4.90
2022-12-22T23:58:55.112Z,4.90
